createdAt,value
2018-08-31T00:00:13.624Z,82.07
2018-08-31T00:01:13.620Z,82.12
2018-08-31T00:02:13.636Z,82.07
2018-08-31T00:03:13.596Z,82.12
2018-08-31T00:04:13.581Z,82.18
2018-08-31T00:05:13.573Z,82.28
2018-08-31T00:06:13.558Z,82.21
2018-08-31T00:07:13.552Z,82.32
2018-08-31T00:08:13.555Z,82.52
2018-08-31T00:09:13.524Z,82.32
2018-08-31T00:10:13.511Z,82.62
2018-08-31T00:11:13.496Z,83.34
2018-08-31T00:12:13.487Z,83.54
2018-08-31T00:13:13.504Z,83.37
2018-08-31T00:14:13.463Z,83.07
2018-08-31T00:15:13.450Z,82.97
2018-08-31T00:16:13.447Z,83.37
2018-08-31T00:17:13.426Z,83.48
2018-08-31T00:18:13.453Z,83.98
2018-08-31T00:19:13.406Z,83.98
2018-08-31T00:20:13.401Z,83.82
2018-08-31T00:21:13.384Z,84.23
2018-08-31T00:22:13.374Z,84.74
2018-08-31T00:23:13.388Z,84.64
2018-08-31T00:24:13.347Z,85.14
2018-08-31T00:25:13.343Z,85.05
2018-08-31T00:26:13.320Z,85.25
2018-08-31T00:27:13.318Z,85.25
2018-08-31T00:28:13.336Z,85.14
2018-08-31T00:29:13.293Z,85.60
2018-08-31T00:30:13.280Z,86.00
2018-08-31T00:31:13.272Z,85.60
2018-08-31T00:32:13.255Z,86.15
2018-08-31T00:33:13.247Z,86.21
2018-08-31T00:34:13.256Z,86.45
2018-08-31T00:35:13.227Z,86.41
2018-08-31T00:36:13.206Z,86.76
2018-08-31T00:37:13.205Z,86.55
2018-08-31T00:38:13.186Z,86.65
2018-08-31T00:39:13.205Z,86.76
2018-08-31T00:40:13.169Z,87.57
2018-08-31T00:41:13.149Z,87.37
2018-08-31T00:42:13.147Z,87.37
2018-08-31T00:43:13.130Z,87.16
2018-08-31T00:44:13.122Z,87.51
2018-08-31T00:45:13.130Z,87.71
2018-08-31T00:46:13.099Z,87.20
2018-08-31T00:47:13.089Z,87.20
2018-08-31T00:48:13.069Z,87.67
2018-08-31T00:49:13.067Z,88.43
2018-08-31T00:50:13.075Z,88.43
2018-08-31T00:51:13.040Z,88.53
2018-08-31T00:52:13.025Z,88.43
2018-08-31T00:53:13.015Z,88.08
2018-08-31T00:54:13.002Z,88.32
2018-08-31T00:55:12.993Z,88.32
2018-08-31T00:56:13.005Z,87.71
2018-08-31T00:57:12.969Z,87.82
2018-08-31T00:58:12.955Z,88.12
2018-08-31T00:59:12.942Z,87.71
2018-08-31T01:00:12.941Z,87.57
2018-08-31T01:01:12.958Z,87.77
2018-08-31T01:02:12.912Z,87.77
2018-08-31T01:03:12.903Z,88.02
2018-08-31T01:04:12.889Z,88.32
2018-08-31T01:05:12.880Z,88.18
2018-08-31T01:06:12.869Z,88.43
2018-08-31T01:07:12.883Z,87.88
2018-08-31T01:08:12.841Z,87.88
2018-08-31T01:09:12.836Z,87.41
2018-08-31T01:10:12.817Z,87.26
2018-08-31T01:11:12.812Z,87.37
2018-08-31T01:12:12.830Z,87.16
2018-08-31T01:13:12.788Z,87.10
2018-08-31T01:14:12.770Z,87.47
2018-08-31T01:15:12.766Z,87.30
2018-08-31T01:16:12.751Z,87.20
2018-08-31T01:17:12.742Z,87.47
2018-08-31T01:18:12.753Z,87.30
2018-08-31T01:19:12.718Z,87.37
2018-08-31T01:20:12.726Z,87.20
2018-08-31T01:21:12.694Z,87.51
2018-08-31T01:22:12.682Z,86.59
2018-08-31T01:23:12.670Z,86.90
2018-08-31T01:24:12.657Z,86.59
2018-08-31T01:25:12.683Z,86.65
2018-08-31T01:26:12.636Z,86.59
2018-08-31T01:27:12.627Z,86.69
2018-08-31T01:28:12.611Z,86.39
2018-08-31T01:29:12.604Z,86.69
2018-08-31T01:30:12.589Z,86.69
2018-08-31T01:31:12.601Z,86.80
2018-08-31T01:32:12.572Z,86.80
2018-08-31T01:33:12.565Z,86.90
2018-08-31T01:34:12.548Z,86.69
2018-08-31T01:35:12.530Z,86.49
2018-08-31T01:36:12.547Z,86.90
2018-08-31T01:37:12.514Z,86.90
2018-08-31T01:38:12.502Z,86.90
2018-08-31T01:39:12.483Z,87.10
2018-08-31T01:40:12.474Z,86.69
2018-08-31T01:41:12.488Z,87.24
2018-08-31T01:42:12.452Z,87.55
2018-08-31T01:43:12.440Z,86.73
2018-08-31T01:44:12.431Z,87.45
2018-08-31T01:45:12.423Z,87.24
2018-08-31T01:46:12.425Z,87.14
2018-08-31T01:47:12.396Z,87.04
2018-08-31T01:48:12.382Z,87.04
2018-08-31T01:49:12.367Z,87.55
2018-08-31T01:50:12.365Z,88.26
2018-08-31T01:51:12.373Z,88.57
2018-08-31T01:52:12.337Z,87.70
2018-08-31T01:53:12.327Z,87.70
2018-08-31T01:54:12.319Z,87.79
2018-08-31T01:55:12.309Z,87.70
2018-08-31T01:56:12.317Z,87.90
2018-08-31T01:57:12.284Z,88.00
2018-08-31T01:58:12.264Z,88.71
2018-08-31T01:59:12.303Z,88.10
2018-08-31T02:00:12.246Z,89.26
2018-08-31T02:01:12.254Z,88.76
2018-08-31T02:02:12.228Z,89.17
2018-08-31T02:03:12.219Z,88.85
2018-08-31T02:04:12.252Z,89.06
2018-08-31T02:05:12.188Z,89.26
2018-08-31T02:06:12.204Z,89.37
2018-08-31T02:07:12.170Z,89.47
2018-08-31T02:08:12.156Z,90.08
2018-08-31T02:09:12.144Z,89.67
2018-08-31T02:10:12.127Z,89.67
2018-08-31T02:11:12.147Z,89.17
2018-08-31T02:12:12.113Z,89.26
2018-08-31T02:13:12.099Z,90.49
2018-08-31T02:14:12.086Z,90.49
2018-08-31T02:15:12.073Z,90.29
2018-08-31T02:16:12.090Z,89.98
2018-08-31T02:17:12.050Z,89.98
2018-08-31T02:18:12.046Z,89.67
2018-08-31T02:19:12.024Z,89.58
2018-08-31T02:20:12.024Z,89.47
2018-08-31T02:21:12.027Z,89.67
2018-08-31T02:22:11.999Z,89.58
2018-08-31T02:23:11.984Z,89.58
2018-08-31T02:24:11.970Z,90.19
2018-08-31T02:25:11.958Z,90.08
2018-08-31T02:26:11.970Z,90.29
2018-08-31T02:27:11.939Z,90.43
2018-08-31T02:28:11.920Z,90.33
2018-08-31T02:29:11.918Z,90.43
2018-08-31T02:30:11.903Z,90.33
2018-08-31T02:31:11.916Z,90.53
2018-08-31T02:32:11.878Z,90.53
2018-08-31T02:33:11.863Z,90.43
2018-08-31T02:34:11.861Z,90.43
2018-08-31T02:35:11.845Z,90.23
2018-08-31T02:36:11.859Z,90.53
2018-08-31T02:37:11.826Z,90.64
2018-08-31T02:38:11.806Z,90.43
2018-08-31T02:39:11.844Z,91.46
2018-08-31T02:40:11.789Z,90.99
2018-08-31T02:41:11.808Z,90.78
2018-08-31T02:42:11.766Z,90.78
2018-08-31T02:43:11.753Z,90.84
2018-08-31T02:44:11.740Z,91.39
2018-08-31T02:45:11.732Z,91.46
2018-08-31T02:46:11.717Z,91.80
2018-08-31T02:47:11.729Z,91.46
2018-08-31T02:48:11.697Z,91.70
2018-08-31T02:49:11.683Z,92.11
2018-08-31T02:50:11.675Z,92.32
2018-08-31T02:51:11.663Z,91.60
2018-08-31T02:52:11.671Z,92.21
2018-08-31T02:53:11.640Z,92.11
2018-08-31T02:54:11.625Z,92.01
2018-08-31T02:55:11.617Z,92.42
2018-08-31T02:56:11.602Z,92.42
2018-08-31T02:57:11.617Z,92.36
2018-08-31T02:58:11.605Z,92.77
2018-08-31T02:59:11.569Z,92.15
2018-08-31T03:00:11.560Z,93.03
2018-08-31T03:01:11.551Z,93.59
2018-08-31T03:02:11.559Z,92.97
2018-08-31T03:03:11.517Z,93.07
2018-08-31T03:04:11.515Z,93.59
2018-08-31T03:05:11.495Z,93.18
2018-08-31T03:06:11.492Z,92.87
2018-08-31T03:07:11.504Z,92.56
2018-08-31T03:08:11.460Z,94.10
2018-08-31T03:09:11.458Z,95.63
2018-08-31T03:10:11.437Z,96.20
2018-08-31T03:11:11.437Z,95.79
2018-08-31T03:12:11.436Z,96.10
2018-08-31T03:13:11.411Z,95.89
2018-08-31T03:14:11.397Z,95.59
2018-08-31T03:15:11.387Z,95.07
2018-08-31T03:16:11.369Z,95.69
2018-08-31T03:17:11.381Z,95.48
2018-08-31T03:18:11.354Z,95.48
2018-08-31T03:19:11.335Z,95.28
2018-08-31T03:20:11.328Z,94.87
2018-08-31T03:21:11.355Z,95.07
2018-08-31T03:22:11.327Z,94.87
2018-08-31T03:23:11.295Z,95.59
2018-08-31T03:24:11.278Z,95.69
2018-08-31T03:25:11.269Z,95.79
2018-08-31T03:26:11.254Z,95.69
2018-08-31T03:27:11.263Z,94.87
2018-08-31T03:28:11.239Z,95.12
2018-08-31T03:29:11.222Z,95.22
2018-08-31T03:30:11.215Z,95.63
2018-08-31T03:31:11.197Z,95.69
2018-08-31T03:32:11.210Z,95.63
2018-08-31T03:33:11.173Z,95.63
2018-08-31T03:34:11.164Z,95.63
2018-08-31T03:35:11.147Z,95.84
2018-08-31T03:36:11.144Z,95.73
2018-08-31T03:37:11.147Z,96.34
2018-08-31T03:38:11.122Z,96.45
2018-08-31T03:39:11.110Z,96.75
2018-08-31T03:40:11.090Z,96.96
2018-08-31T03:41:11.088Z,96.75
2018-08-31T03:42:11.100Z,96.66
2018-08-31T03:43:11.056Z,97.16
2018-08-31T03:44:11.050Z,96.75
2018-08-31T03:45:11.035Z,97.12
2018-08-31T03:46:11.026Z,96.81
2018-08-31T03:47:11.037Z,96.92
2018-08-31T03:48:11.000Z,96.10
2018-08-31T03:49:10.992Z,96.45
2018-08-31T03:50:10.981Z,96.86
2018-08-31T03:51:10.970Z,96.81
2018-08-31T03:52:10.974Z,96.34
2018-08-31T03:53:10.945Z,96.20
2018-08-31T03:54:10.925Z,96.45
2018-08-31T03:55:10.915Z,96.00
2018-08-31T03:56:10.912Z,96.45
2018-08-31T03:57:10.913Z,96.34
2018-08-31T03:58:10.887Z,96.45
2018-08-31T03:59:10.875Z,96.96
2018-08-31T04:00:10.861Z,96.92
2018-08-31T04:01:10.849Z,96.04
2018-08-31T04:02:10.859Z,96.55
2018-08-31T04:03:10.824Z,96.75
2018-08-31T04:04:10.821Z,96.75
2018-08-31T04:05:10.802Z,96.55
2018-08-31T04:06:10.792Z,96.86
2018-08-31T04:07:10.798Z,96.96
2018-08-31T04:08:10.773Z,96.55
2018-08-31T04:09:10.758Z,96.25
2018-08-31T04:10:10.744Z,96.34
2018-08-31T04:11:10.739Z,95.94
2018-08-31T04:12:10.741Z,95.73
2018-08-31T04:13:10.708Z,95.98
2018-08-31T04:14:10.701Z,95.67
2018-08-31T04:15:10.706Z,96.08
2018-08-31T04:16:10.674Z,95.98
2018-08-31T04:17:10.696Z,95.98
2018-08-31T04:18:10.655Z,96.19
2018-08-31T04:19:10.644Z,96.29
2018-08-31T04:20:10.628Z,96.59
2018-08-31T04:21:10.615Z,96.59
2018-08-31T04:22:10.636Z,96.45
2018-08-31T04:23:10.600Z,96.59
2018-08-31T04:24:10.579Z,96.80
2018-08-31T04:25:10.577Z,96.59
2018-08-31T04:26:10.558Z,96.34
2018-08-31T04:27:10.568Z,96.91
2018-08-31T04:28:10.542Z,96.80
2018-08-31T04:29:10.572Z,96.59
2018-08-31T04:30:10.518Z,96.49
2018-08-31T04:31:10.499Z,96.29
2018-08-31T04:32:10.531Z,96.39
2018-08-31T04:33:10.480Z,96.08
2018-08-31T04:34:10.511Z,96.49
2018-08-31T04:35:10.459Z,96.19
2018-08-31T04:36:10.446Z,96.70
2018-08-31T04:37:10.461Z,96.70
2018-08-31T04:38:10.424Z,96.64
2018-08-31T04:39:10.408Z,96.91
2018-08-31T04:40:10.399Z,96.95
2018-08-31T04:41:10.392Z,96.70
2018-08-31T04:42:10.394Z,97.11
2018-08-31T04:43:10.363Z,96.91
2018-08-31T04:44:10.358Z,96.59
2018-08-31T04:45:10.340Z,96.84
2018-08-31T04:46:10.327Z,96.64
2018-08-31T04:47:10.336Z,95.82
2018-08-31T04:48:10.310Z,96.74
2018-08-31T04:49:10.291Z,95.92
2018-08-31T04:50:10.281Z,95.51
2018-08-31T04:51:10.280Z,95.62
2018-08-31T04:52:10.283Z,97.05
2018-08-31T04:53:10.254Z,97.05
2018-08-31T04:54:10.233Z,96.74
2018-08-31T04:55:10.220Z,96.95
2018-08-31T04:56:10.218Z,96.95
2018-08-31T04:57:10.222Z,96.74
2018-08-31T04:58:10.197Z,96.64
2018-08-31T04:59:10.177Z,96.64
2018-08-31T05:00:10.169Z,96.54
2018-08-31T05:01:10.156Z,96.54
2018-08-31T05:02:10.170Z,96.03
2018-08-31T05:03:10.131Z,96.74
2018-08-31T05:04:10.123Z,96.64
2018-08-31T05:05:10.114Z,96.03
2018-08-31T05:06:10.094Z,96.23
2018-08-31T05:07:10.110Z,97.05
2018-08-31T05:08:10.081Z,96.95
2018-08-31T05:09:10.067Z,96.64
2018-08-31T05:10:10.055Z,96.54
2018-08-31T05:11:10.040Z,96.74
2018-08-31T05:12:10.053Z,96.19
2018-08-31T05:13:10.016Z,96.64
2018-08-31T05:14:10.009Z,96.54
2018-08-31T05:15:09.993Z,96.84
2018-08-31T05:16:10.069Z,96.95
2018-08-31T05:17:09.998Z,96.74
2018-08-31T05:18:09.956Z,96.84
2018-08-31T05:19:09.943Z,97.15
2018-08-31T05:20:09.939Z,96.84
2018-08-31T05:21:09.924Z,97.11
2018-08-31T05:22:09.943Z,96.39
2018-08-31T05:23:09.934Z,97.11
2018-08-31T05:24:09.883Z,97.41
2018-08-31T05:25:09.882Z,96.59
2018-08-31T05:26:09.862Z,97.00
2018-08-31T05:27:09.881Z,96.39
2018-08-31T05:28:09.840Z,97.31
2018-08-31T05:29:09.833Z,96.59
2018-08-31T05:30:09.818Z,96.59
2018-08-31T05:31:09.807Z,97.31
2018-08-31T05:32:09.822Z,97.16
2018-08-31T05:33:09.787Z,97.52
2018-08-31T05:34:09.776Z,96.66
2018-08-31T05:35:09.768Z,96.70
2018-08-31T05:36:09.748Z,96.75
2018-08-31T05:37:09.762Z,96.55
2018-08-31T05:38:09.728Z,97.16
2018-08-31T05:39:09.719Z,96.66
2018-08-31T05:40:09.712Z,96.75
2018-08-31T05:41:09.690Z,96.75
2018-08-31T05:42:09.709Z,96.39
2018-08-31T05:43:09.671Z,95.94
2018-08-31T05:44:09.662Z,96.66
2018-08-31T05:45:09.654Z,96.04
2018-08-31T05:46:09.637Z,95.89
2018-08-31T05:47:09.643Z,95.89
2018-08-31T05:48:09.620Z,95.69
2018-08-31T05:49:09.605Z,95.73
2018-08-31T05:50:09.590Z,95.48
2018-08-31T05:51:09.581Z,95.69
2018-08-31T05:52:09.590Z,95.69
2018-08-31T05:53:09.558Z,95.59
2018-08-31T05:54:09.545Z,95.69
2018-08-31T05:55:09.533Z,95.38
2018-08-31T05:56:09.523Z,95.13
2018-08-31T05:57:09.539Z,95.34
2018-08-31T05:58:09.502Z,94.82
2018-08-31T05:59:09.484Z,95.03
2018-08-31T06:00:09.481Z,94.82
2018-08-31T06:01:09.462Z,94.82
2018-08-31T06:02:09.511Z,94.52
2018-08-31T06:03:09.440Z,94.01
2018-08-31T06:04:09.432Z,93.80
2018-08-31T06:05:09.418Z,93.96
2018-08-31T06:06:09.410Z,93.96
2018-08-31T06:07:09.423Z,94.27
2018-08-31T06:08:09.387Z,93.86
2018-08-31T06:09:09.378Z,94.37
2018-08-31T06:10:09.357Z,93.71
2018-08-31T06:11:09.351Z,93.92
2018-08-31T06:12:09.358Z,93.66
2018-08-31T06:13:09.328Z,93.21
2018-08-31T06:14:09.319Z,92.69
2018-08-31T06:15:09.302Z,92.90
2018-08-31T06:16:09.294Z,93.21
2018-08-31T06:17:09.303Z,92.45
2018-08-31T06:18:09.269Z,91.74
2018-08-31T06:19:09.256Z,91.53
2018-08-31T06:20:09.243Z,90.71
2018-08-31T06:21:09.331Z,91.63
2018-08-31T06:22:09.252Z,91.63
2018-08-31T06:23:09.219Z,91.22
2018-08-31T06:24:09.197Z,90.20
2018-08-31T06:25:09.182Z,88.32
2018-08-31T06:26:09.172Z,88.26
2018-08-31T06:27:09.268Z,87.41
2018-08-31T06:28:09.152Z,89.08
2018-08-31T06:29:09.137Z,89.25
2018-08-31T06:30:09.134Z,90.26
2018-08-31T06:31:09.118Z,89.96
2018-08-31T06:32:09.136Z,90.63
2018-08-31T06:33:09.093Z,90.12
2018-08-31T06:34:09.080Z,90.83
2018-08-31T06:35:09.069Z,90.53
2018-08-31T06:36:09.083Z,89.20
2018-08-31T06:37:09.044Z,89.20
2018-08-31T06:38:09.060Z,89.40
2018-08-31T06:39:09.028Z,88.55
2018-08-31T06:40:09.006Z,89.16
2018-08-31T06:41:09.003Z,87.63
2018-08-31T06:42:08.990Z,88.65
2018-08-31T06:43:09.000Z,86.61
2018-08-31T06:44:08.967Z,87.08
2018-08-31T06:45:08.954Z,86.88
2018-08-31T06:46:08.941Z,86.37
2018-08-31T06:47:08.942Z,87.18
2018-08-31T06:48:09.000Z,86.27
2018-08-31T06:49:08.905Z,86.16
2018-08-31T06:50:08.895Z,85.75
2018-08-31T06:51:08.883Z,86.06
2018-08-31T06:52:08.899Z,86.43
2018-08-31T06:53:09.904Z,86.63
2018-08-31T06:54:08.852Z,85.88
2018-08-31T06:55:08.840Z,83.95
2018-08-31T06:56:08.822Z,83.54
2018-08-31T06:57:08.814Z,84.05
2018-08-31T06:58:08.833Z,82.21
2018-08-31T06:59:08.798Z,81.60
2018-08-31T07:00:08.774Z,82.28
2018-08-31T07:01:08.765Z,83.20
2018-08-31T07:02:08.781Z,80.85
2018-08-31T07:03:08.745Z,80.31
2018-08-31T07:04:08.728Z,81.73
2018-08-31T07:05:08.727Z,82.04
2018-08-31T07:06:08.710Z,80.31
2018-08-31T07:07:08.726Z,81.09
2018-08-31T07:08:08.682Z,81.29
2018-08-31T07:09:08.682Z,81.49
2018-08-31T07:10:08.659Z,81.66
2018-08-31T07:11:08.658Z,81.25
2018-08-31T07:12:08.707Z,78.30
2018-08-31T07:13:08.629Z,79.63
2018-08-31T07:14:08.621Z,78.27
2018-08-31T07:15:08.608Z,76.64
2018-08-31T07:16:08.609Z,77.93
2018-08-31T07:17:08.584Z,76.64
2018-08-31T07:18:08.593Z,76.20
2018-08-31T07:19:08.559Z,77.01
2018-08-31T07:20:08.606Z,76.06
2018-08-31T07:21:08.535Z,76.67
2018-08-31T07:22:08.526Z,74.95
2018-08-31T07:23:08.538Z,75.96
2018-08-31T07:24:08.503Z,74.51
2018-08-31T07:25:08.491Z,75.12
2018-08-31T07:26:08.476Z,74.17
2018-08-31T07:27:08.462Z,73.83
2018-08-31T07:28:08.485Z,72.72
2018-08-31T07:29:08.441Z,72.88
2018-08-31T07:30:08.437Z,71.77
2018-08-31T07:31:08.427Z,70.76
2018-08-31T07:32:08.437Z,69.81
2018-08-31T07:33:08.427Z,70.73
2018-08-31T07:34:08.383Z,69.81
2018-08-31T07:35:08.372Z,71.00
2018-08-31T07:36:08.371Z,71.20
2018-08-31T07:37:08.354Z,70.29
2018-08-31T07:38:08.362Z,70.66
2018-08-31T07:39:08.336Z,69.65
2018-08-31T07:40:08.317Z,68.03
2018-08-31T07:41:08.307Z,67.39
2018-08-31T07:42:08.299Z,68.10
2018-08-31T07:43:08.306Z,68.10
2018-08-31T07:44:08.274Z,68.51
2018-08-31T07:45:08.266Z,68.51
2018-08-31T07:46:08.247Z,67.97
2018-08-31T07:47:08.238Z,68.07
2018-08-31T07:48:08.249Z,68.17
2018-08-31T07:49:08.208Z,67.13
2018-08-31T07:50:08.207Z,66.22
2018-08-31T07:51:08.196Z,65.81
2018-08-31T07:52:08.179Z,66.62
2018-08-31T07:53:08.191Z,66.79
2018-08-31T07:54:08.159Z,66.49
2018-08-31T07:55:08.150Z,64.64
2018-08-31T07:56:08.133Z,65.72
2018-08-31T07:57:08.120Z,64.11
2018-08-31T07:58:08.139Z,64.15
2018-08-31T07:59:08.097Z,62.34
2018-08-31T08:00:08.094Z,60.60
2018-08-31T08:01:08.073Z,61.70
2018-08-31T08:02:08.071Z,60.87
2018-08-31T08:03:08.077Z,60.64
2018-08-31T08:04:08.048Z,59.60
2018-08-31T08:05:08.040Z,60.11
2018-08-31T08:06:08.017Z,59.47
2018-08-31T08:07:08.018Z,58.97
2018-08-31T08:08:08.020Z,59.45
2018-08-31T08:09:07.990Z,58.64
2018-08-31T08:10:07.974Z,59.14
2018-08-31T08:11:07.970Z,57.11
2018-08-31T08:12:07.949Z,56.30
2018-08-31T08:13:07.971Z,56.28
2018-08-31T08:14:07.928Z,56.78
2018-08-31T08:15:07.925Z,56.78
2018-08-31T08:16:07.914Z,56.98
2018-08-31T08:17:07.899Z,57.15
2018-08-31T08:18:07.906Z,55.85
2018-08-31T08:19:07.875Z,56.63
2018-08-31T08:20:07.862Z,56.23
2018-08-31T08:21:07.847Z,55.43
2018-08-31T08:22:07.846Z,55.60
2018-08-31T08:23:07.852Z,54.10
2018-08-31T08:24:07.820Z,54.60
2018-08-31T08:25:07.806Z,53.77
2018-08-31T08:26:07.801Z,54.37
2018-08-31T08:27:07.821Z,54.97
2018-08-31T08:28:07.771Z,53.74
2018-08-31T08:29:07.771Z,51.64
2018-08-31T08:30:07.749Z,52.84
2018-08-31T08:31:07.742Z,50.72
2018-08-31T08:32:07.727Z,52.62
2018-08-31T08:33:07.743Z,50.22
2018-08-31T08:34:07.705Z,53.52
2018-08-31T08:35:07.695Z,51.32
2018-08-31T08:36:07.695Z,50.99
2018-08-31T08:37:07.672Z,52.19
2018-08-31T08:38:07.688Z,51.89
2018-08-31T08:39:07.646Z,50.99
2018-08-31T08:40:07.645Z,51.07
2018-08-31T08:41:07.632Z,50.47
2018-08-31T08:42:07.700Z,50.07
2018-08-31T08:43:07.635Z,49.37
2018-08-31T08:44:07.594Z,51.07
2018-08-31T08:45:07.584Z,51.15
2018-08-31T08:46:07.575Z,50.45
2018-08-31T08:47:07.562Z,49.65
2018-08-31T08:48:07.639Z,48.25
2018-08-31T08:49:07.545Z,47.33
2018-08-31T08:50:07.524Z,49.25
2018-08-31T08:51:07.519Z,48.52
2018-08-31T08:52:07.508Z,48.63
2018-08-31T08:53:07.515Z,50.22
2018-08-31T08:54:07.487Z,49.72
2018-08-31T08:55:07.469Z,49.92
2018-08-31T08:56:07.466Z,48.02
2018-08-31T08:57:07.486Z,46.43
2018-08-31T08:58:07.525Z,47.83
2018-08-31T08:59:07.433Z,47.03
2018-08-31T09:00:07.413Z,47.03
2018-08-31T09:01:07.412Z,48.13
2018-08-31T09:02:07.393Z,46.43
2018-08-31T09:03:07.413Z,46.45
2018-08-31T09:04:07.368Z,48.63
2018-08-31T09:05:07.360Z,45.43
2018-08-31T09:06:07.356Z,46.35
2018-08-31T09:07:07.341Z,47.97
2018-08-31T09:08:07.356Z,48.55
2018-08-31T09:09:07.317Z,50.35
2018-08-31T09:10:07.311Z,48.94
2018-08-31T09:11:07.298Z,46.95
2018-08-31T09:12:07.279Z,47.85
2018-08-31T09:13:07.302Z,48.63
2018-08-31T09:14:07.257Z,47.92
2018-08-31T09:15:07.251Z,47.03
2018-08-31T09:16:07.243Z,46.61
2018-08-31T09:17:07.224Z,45.81
2018-08-31T09:18:07.243Z,45.10
2018-08-31T09:19:07.200Z,47.50
2018-08-31T09:20:07.219Z,47.30
2018-08-31T09:21:07.186Z,45.90
2018-08-31T09:22:07.171Z,46.41
2018-08-31T09:23:07.190Z,47.00
2018-08-31T09:24:08.129Z,47.20
2018-08-31T09:25:07.461Z,46.33
2018-08-31T09:26:07.123Z,48.72
2018-08-31T09:27:07.112Z,47.55
2018-08-31T09:28:07.132Z,47.85
2018-08-31T09:29:07.095Z,48.57
2018-08-31T09:30:07.083Z,50.49
2018-08-31T09:31:07.068Z,50.49
2018-08-31T09:32:07.060Z,50.29
2018-08-31T09:33:07.075Z,48.99
2018-08-31T09:34:07.033Z,49.29
2018-08-31T09:35:07.031Z,50.12
2018-08-31T09:36:07.011Z,50.72
2018-08-31T09:37:07.008Z,52.64
2018-08-31T09:38:07.016Z,51.25
2018-08-31T09:39:06.977Z,51.27
2018-08-31T09:40:06.969Z,52.67
2018-08-31T09:41:06.954Z,51.34
2018-08-31T09:42:06.953Z,52.37
2018-08-31T09:43:06.956Z,52.97
2018-08-31T09:44:06.925Z,52.24
2018-08-31T09:45:06.911Z,52.87
2018-08-31T09:46:06.903Z,52.77
2018-08-31T09:47:06.885Z,51.19
2018-08-31T09:48:06.914Z,51.99
2018-08-31T09:49:06.862Z,54.60
2018-08-31T09:50:06.859Z,52.29
2018-08-31T09:51:06.838Z,53.72
2018-08-31T09:52:06.836Z,54.10
2018-08-31T09:53:06.821Z,53.39
2018-08-31T09:54:06.837Z,55.50
2018-08-31T09:55:06.801Z,51.87
2018-08-31T09:56:06.787Z,53.57
2018-08-31T09:57:06.773Z,52.67
2018-08-31T09:58:06.763Z,50.44
2018-08-31T09:59:06.772Z,51.74
2018-08-31T10:00:06.747Z,53.55
2018-08-31T10:01:06.727Z,52.55
2018-08-31T10:02:06.722Z,51.82
2018-08-31T10:03:06.712Z,49.62
2018-08-31T10:04:06.719Z,50.52
2018-08-31T10:05:06.691Z,49.32
2018-08-31T10:06:06.667Z,50.12
2018-08-31T10:07:06.659Z,49.49
2018-08-31T10:08:06.651Z,50.62
2018-08-31T10:09:06.643Z,50.39
2018-08-31T10:10:06.731Z,51.57
2018-08-31T10:11:06.611Z,49.65
2018-08-31T10:12:06.632Z,48.32
2018-08-31T10:13:06.594Z,49.40
2018-08-31T10:14:06.582Z,48.68
2018-08-31T10:15:06.575Z,47.38
2018-08-31T10:16:06.556Z,45.17
2018-08-31T10:17:06.554Z,46.36
2018-08-31T10:18:06.563Z,44.96
2018-08-31T10:19:06.524Z,46.36
2018-08-31T10:20:06.519Z,44.84
2018-08-31T10:21:06.502Z,42.95
2018-08-31T10:22:06.499Z,42.95
2018-08-31T10:23:06.485Z,44.45
2018-08-31T10:24:06.494Z,44.96
2018-08-31T10:25:06.460Z,44.27
2018-08-31T10:26:06.456Z,47.16
2018-08-31T10:27:06.445Z,46.34
2018-08-31T10:28:06.434Z,44.84
2018-08-31T10:29:06.449Z,43.45
2018-08-31T10:30:06.437Z,45.42
2018-08-31T10:31:06.394Z,44.35
2018-08-31T10:32:06.393Z,46.42
2018-08-31T10:33:06.379Z,43.63
2018-08-31T10:34:06.364Z,43.71
2018-08-31T10:35:06.375Z,44.60
2018-08-31T10:36:06.343Z,41.52
2018-08-31T10:37:06.336Z,43.38
2018-08-31T10:38:06.316Z,41.30
2018-08-31T10:39:06.308Z,44.98
2018-08-31T10:40:06.322Z,42.17
2018-08-31T10:41:06.290Z,41.95
2018-08-31T10:42:06.278Z,42.75
2018-08-31T10:43:06.265Z,43.80
2018-08-31T10:44:06.258Z,41.71
2018-08-31T10:45:06.267Z,42.19
2018-08-31T10:46:06.231Z,42.66
2018-08-31T10:47:06.222Z,41.55
2018-08-31T10:48:06.212Z,41.06
2018-08-31T10:49:06.200Z,38.58
2018-08-31T10:50:06.214Z,37.98
2018-08-31T10:51:06.176Z,38.40
2018-08-31T10:52:06.173Z,41.69
2018-08-31T10:53:06.154Z,39.03
2018-08-31T10:54:06.151Z,41.82
2018-08-31T10:55:06.152Z,40.84
2018-08-31T10:56:06.137Z,40.26
2018-08-31T10:57:06.116Z,41.28
2018-08-31T10:58:06.106Z,41.20
2018-08-31T10:59:06.097Z,42.31
2018-08-31T11:00:06.155Z,42.83
2018-08-31T11:01:06.067Z,45.52
2018-08-31T11:02:06.057Z,42.25
2018-08-31T11:03:06.049Z,44.67
2018-08-31T11:04:06.038Z,43.19
2018-08-31T11:05:06.041Z,44.79
2018-08-31T11:06:06.018Z,45.40
2018-08-31T11:07:06.005Z,46.01
2018-08-31T11:08:05.985Z,43.93
2018-08-31T11:09:05.982Z,45.03
2018-08-31T11:10:05.985Z,48.72
2018-08-31T11:11:05.960Z,46.43
2018-08-31T11:12:05.941Z,45.93
2018-08-31T11:13:06.077Z,45.15
2018-08-31T11:14:05.919Z,43.85
2018-08-31T11:15:05.931Z,45.57
2018-08-31T11:16:05.904Z,46.09
2018-08-31T11:17:05.885Z,47.89
2018-08-31T11:18:05.885Z,44.59
2018-08-31T11:19:05.865Z,47.42
2018-08-31T11:20:05.881Z,46.09
2018-08-31T11:21:05.848Z,46.42
2018-08-31T11:22:05.827Z,47.81
2018-08-31T11:23:05.823Z,46.74
2018-08-31T11:24:05.808Z,47.84
2018-08-31T11:25:05.820Z,46.44
2018-08-31T11:26:05.792Z,45.76
2018-08-31T11:27:05.769Z,46.08
2018-08-31T11:28:05.766Z,46.58
2018-08-31T11:29:05.751Z,46.70
2018-08-31T11:30:05.738Z,51.51
2018-08-31T11:31:05.753Z,48.01
2018-08-31T11:32:05.712Z,51.01
2018-08-31T11:33:05.703Z,51.51
2018-08-31T11:34:05.695Z,49.69
2018-08-31T11:35:05.683Z,48.21
2018-08-31T11:36:05.692Z,49.11
2018-08-31T11:37:05.654Z,49.31
2018-08-31T11:38:05.650Z,50.81
2018-08-31T11:39:05.639Z,49.29
2018-08-31T11:40:05.618Z,48.11
2018-08-31T11:41:05.633Z,47.78
2018-08-31T11:42:05.605Z,46.68
2018-08-31T11:43:05.588Z,47.88
2018-08-31T11:44:05.580Z,45.06
2018-08-31T11:45:05.565Z,45.74
2018-08-31T11:46:05.572Z,44.24
2018-08-31T11:47:05.539Z,45.34
2018-08-31T11:48:05.540Z,45.81
2018-08-31T11:49:05.523Z,47.61
2018-08-31T11:50:05.509Z,45.97
2018-08-31T11:51:05.527Z,42.25
2018-08-31T11:52:05.484Z,47.03
2018-08-31T11:53:05.482Z,45.51
2018-08-31T11:54:05.460Z,43.59
2018-08-31T11:55:05.505Z,44.46
2018-08-31T11:56:05.466Z,44.24
2018-08-31T11:57:05.431Z,42.15
2018-08-31T11:58:05.419Z,39.94
2018-08-31T11:59:05.411Z,41.53
2018-08-31T12:00:05.400Z,38.84
2018-08-31T12:01:05.548Z,39.86
2018-08-31T12:02:05.461Z,41.14
2018-08-31T12:03:05.369Z,42.13
2018-08-31T12:04:05.349Z,41.46
2018-08-31T12:05:05.340Z,39.96
2018-08-31T12:06:05.354Z,40.08
2018-08-31T12:07:05.316Z,39.58
2018-08-31T12:08:05.314Z,41.17
2018-08-31T12:09:05.292Z,42.89
2018-08-31T12:10:05.290Z,45.39
2018-08-31T12:11:05.304Z,42.99
2018-08-31T12:12:05.258Z,42.89
2018-08-31T12:13:05.255Z,42.89
2018-08-31T12:14:05.236Z,40.30
2018-08-31T12:15:05.231Z,42.21
2018-08-31T12:16:05.240Z,44.41
2018-08-31T12:17:05.203Z,40.40
2018-08-31T12:18:05.196Z,42.10
2018-08-31T12:19:05.185Z,41.88
2018-08-31T12:20:05.171Z,40.16
2018-08-31T12:21:05.218Z,42.73
2018-08-31T12:22:05.152Z,45.00
2018-08-31T12:23:05.136Z,41.60
2018-08-31T12:24:05.131Z,44.26
2018-08-31T12:25:05.120Z,42.53
2018-08-31T12:26:05.123Z,39.33
2018-08-31T12:27:05.096Z,41.39
2018-08-31T12:28:05.084Z,36.50
2018-08-31T12:29:05.069Z,40.66
2018-08-31T12:30:05.068Z,34.58
2018-08-31T12:31:05.072Z,35.17
2018-08-31T12:32:05.046Z,36.84
2018-08-31T12:33:05.032Z,35.65
2018-08-31T12:34:05.021Z,34.95
2018-08-31T12:35:05.016Z,37.81
2018-08-31T12:36:05.025Z,34.25
2018-08-31T12:37:04.987Z,37.41
2018-08-31T12:38:04.981Z,34.43
2018-08-31T12:39:04.970Z,32.76
2018-08-31T12:40:04.958Z,38.15
2018-08-31T12:41:04.969Z,36.26
2018-08-31T12:42:04.941Z,36.28
2018-08-31T12:43:04.931Z,35.78
2018-08-31T12:44:04.968Z,40.34
2018-08-31T12:45:04.906Z,37.19
2018-08-31T12:46:04.894Z,40.15
2018-08-31T12:47:04.908Z,40.55
2018-08-31T12:48:04.866Z,39.73
2018-08-31T12:49:04.859Z,37.85
2018-08-31T12:50:04.851Z,37.35
2018-08-31T12:51:04.837Z,37.55
2018-08-31T12:52:04.853Z,37.04